sensor_id;sensor_type;location;lat;lon;timestamp;temperature;humidity
38854;DHT22;24606;51.992;4.198;2023-03-20T00:00:20;20.10;76.50
38854;DHT22;24606;51.992;4.198;2023-03-20T00:05:25;20.10;76.70
38854;DHT22;24606;51.992;4.198;2023-03-20T00:10:33;20.00;76.70
38854;DHT22;24606;51.992;4.198;2023-03-20T00:15:37;20.00;76.70
38854;DHT22;24606;51.992;4.198;2023-03-20T00:20:41;20.00;76.80
38854;DHT22;24606;51.992;4.198;2023-03-20T00:25:44;20.00;75.90
38854;DHT22;24606;51.992;4.198;2023-03-20T00:30:47;20.00;76.20
38854;DHT22;24606;51.992;4.198;2023-03-20T00:35:50;20.00;76.50
38854;DHT22;24606;51.992;4.198;2023-03-20T00:40:52;20.00;76.00
38854;DHT22;24606;51.992;4.198;2023-03-20T00:45:54;19.90;76.70
38854;DHT22;24606;51.992;4.198;2023-03-20T00:50:57;19.90;75.80
38854;DHT22;24606;51.992;4.198;2023-03-20T00:55:59;19.90;75.50
38854;DHT22;24606;51.992;4.198;2023-03-20T01:01:01;20.00;75.60
38854;DHT22;24606;51.992;4.198;2023-03-20T01:06:05;19.90;75.80
38854;DHT22;24606;51.992;4.198;2023-03-20T01:11:09;19.70;76.60
38854;DHT22;24606;51.992;4.198;2023-03-20T01:16:19;19.50;79.00
38854;DHT22;24606;51.992;4.198;2023-03-20T01:21:24;19.60;77.30
38854;DHT22;24606;51.992;4.198;2023-03-20T01:26:30;19.70;76.00
38854;DHT22;24606;51.992;4.198;2023-03-20T01:31:32;19.60;77.00
38854;DHT22;24606;51.992;4.198;2023-03-20T01:36:36;18.40;86.50
38854;DHT22;24606;51.992;4.198;2023-03-20T01:41:38;19.00;81.10
38854;DHT22;24606;51.992;4.198;2023-03-20T01:46:40;18.30;84.70
38854;DHT22;24606;51.992;4.198;2023-03-20T01:51:44;18.20;85.70
38854;DHT22;24606;51.992;4.198;2023-03-20T01:56:49;17.70;90.30
38854;DHT22;24606;51.992;4.198;2023-03-20T02:01:52;18.80;80.70
38854;DHT22;24606;51.992;4.198;2023-03-20T02:06:56;19.00;79.80
38854;DHT22;24606;51.992;4.198;2023-03-20T02:11:58;19.40;76.30
38854;DHT22;24606;51.992;4.198;2023-03-20T02:17:09;19.60;75.20
38854;DHT22;24606;51.992;4.198;2023-03-20T02:28:06;19.50;75.10
38854;DHT22;24606;51.992;4.198;2023-03-20T02:33:52;19.50;74.60
38854;DHT22;24606;51.992;4.198;2023-03-20T02:39:37;19.20;76.80
38854;DHT22;24606;51.992;4.198;2023-03-20T02:44:46;18.40;78.30
38854;DHT22;24606;51.992;4.198;2023-03-20T02:49:56;18.20;85.80
38854;DHT22;24606;51.992;4.198;2023-03-20T02:55:07;18.40;79.30
38854;DHT22;24606;51.992;4.198;2023-03-20T03:00:14;18.40;82.20
38854;DHT22;24606;51.992;4.198;2023-03-20T03:05:21;19.00;78.10
38854;DHT22;24606;51.992;4.198;2023-03-20T03:10:29;19.20;74.40
38854;DHT22;24606;51.992;4.198;2023-03-20T03:15:35;19.00;76.00
38854;DHT22;24606;51.992;4.198;2023-03-20T03:20:38;19.20;75.00
38854;DHT22;24606;51.992;4.198;2023-03-20T03:25:42;19.30;74.10
38854;DHT22;24606;51.992;4.198;2023-03-20T03:30:44;19.10;75.70
38854;DHT22;24606;51.992;4.198;2023-03-20T03:35:47;19.20;74.80
38854;DHT22;24606;51.992;4.198;2023-03-20T03:40:57;18.70;70.50
38854;DHT22;24606;51.992;4.198;2023-03-20T03:46:04;17.80;84.60
38854;DHT22;24606;51.992;4.198;2023-03-20T03:51:10;18.30;81.30
38854;DHT22;24606;51.992;4.198;2023-03-20T03:56:19;18.50;77.20
38854;DHT22;24606;51.992;4.198;2023-03-20T04:01:23;18.90;76.20
38854;DHT22;24606;51.992;4.198;2023-03-20T04:06:27;18.50;78.90
38854;DHT22;24606;51.992;4.198;2023-03-20T04:11:30;18.00;82.70
38854;DHT22;24606;51.992;4.198;2023-03-20T04:16:32;17.50;83.20
38854;DHT22;24606;51.992;4.198;2023-03-20T04:21:34;17.20;87.50
38854;DHT22;24606;51.992;4.198;2023-03-20T04:26:38;17.40;84.40
38854;DHT22;24606;51.992;4.198;2023-03-20T04:31:40;17.30;87.10
38854;DHT22;24606;51.992;4.198;2023-03-20T04:36:42;18.50;78.00
38854;DHT22;24606;51.992;4.198;2023-03-20T04:41:46;18.50;77.70
38854;DHT22;24606;51.992;4.198;2023-03-20T04:46:48;18.80;74.80
38854;DHT22;24606;51.992;4.198;2023-03-20T04:51:50;18.60;73.90
38854;DHT22;24606;51.992;4.198;2023-03-20T04:56:53;17.90;82.20
38854;DHT22;24606;51.992;4.198;2023-03-20T05:01:55;18.00;80.30
38854;DHT22;24606;51.992;4.198;2023-03-20T05:06:57;17.30;71.10
38854;DHT22;24606;51.992;4.198;2023-03-20T05:12:01;17.40;85.80
38854;DHT22;24606;51.992;4.198;2023-03-20T05:17:03;17.00;84.60
38854;DHT22;24606;51.992;4.198;2023-03-20T05:22:05;17.20;83.40
38854;DHT22;24606;51.992;4.198;2023-03-20T05:27:08;17.30;70.00
38854;DHT22;24606;51.992;4.198;2023-03-20T05:32:11;17.50;81.20
38854;DHT22;24606;51.992;4.198;2023-03-20T05:37:13;17.20;86.70
38854;DHT22;24606;51.992;4.198;2023-03-20T05:42:17;18.10;78.70
38854;DHT22;24606;51.992;4.198;2023-03-20T05:47:19;18.50;76.10
38854;DHT22;24606;51.992;4.198;2023-03-20T05:52:21;18.20;77.70
38854;DHT22;24606;51.992;4.198;2023-03-20T05:57:24;18.00;72.90
38854;DHT22;24606;51.992;4.198;2023-03-20T06:02:26;17.90;81.30
38854;DHT22;24606;51.992;4.198;2023-03-20T06:07:28;18.10;78.20
38854;DHT22;24606;51.992;4.198;2023-03-20T06:12:32;18.50;74.40
38854;DHT22;24606;51.992;4.198;2023-03-20T06:17:34;17.50;84.00
38854;DHT22;24606;51.992;4.198;2023-03-20T06:22:35;16.90;79.90
38854;DHT22;24606;51.992;4.198;2023-03-20T06:27:39;17.00;90.60
38854;DHT22;24606;51.992;4.198;2023-03-20T06:32:41;16.70;88.10
38854;DHT22;24606;51.992;4.198;2023-03-20T06:37:43;15.70;94.20
38854;DHT22;24606;51.992;4.198;2023-03-20T06:42:47;17.70;85.30
38854;DHT22;24606;51.992;4.198;2023-03-20T06:47:49;14.50;95.40
38854;DHT22;24606;51.992;4.198;2023-03-20T06:52:51;17.30;89.40
38854;DHT22;24606;51.992;4.198;2023-03-20T06:57:54;17.10;90.90
38854;DHT22;24606;51.992;4.198;2023-03-20T07:15:29;16.40;73.70
38854;DHT22;24606;51.992;4.198;2023-03-20T07:20:32;16.50;93.50
38854;DHT22;24606;51.992;4.198;2023-03-20T07:25:34;16.40;92.10
38854;DHT22;24606;51.992;4.198;2023-03-20T07:30:38;15.10;92.70
38854;DHT22;24606;51.992;4.198;2023-03-20T07:35:40;15.50;92.40
38854;DHT22;24606;51.992;4.198;2023-03-20T07:40:42;15.00;98.80
38854;DHT22;24606;51.992;4.198;2023-03-20T07:45:46;13.60;94.70
38854;DHT22;24606;51.992;4.198;2023-03-20T07:50:47;14.50;98.50
38854;DHT22;24606;51.992;4.198;2023-03-20T07:55:49;14.40;99.90
38854;DHT22;24606;51.992;4.198;2023-03-20T08:00:52;14.90;96.50
38854;DHT22;24606;51.992;4.198;2023-03-20T08:05:54;16.10;81.70
38854;DHT22;24606;51.992;4.198;2023-03-20T08:10:56;15.40;81.50
38854;DHT22;24606;51.992;4.198;2023-03-20T08:16:00;16.80;90.60
38854;DHT22;24606;51.992;4.198;2023-03-20T08:21:02;16.70;78.80
38854;DHT22;24606;51.992;4.198;2023-03-20T08:26:04;15.00;99.50
38854;DHT22;24606;51.992;4.198;2023-03-20T08:31:08;15.30;95.00
38854;DHT22;24606;51.992;4.198;2023-03-20T08:36:10;16.40;90.60
38854;DHT22;24606;51.992;4.198;2023-03-20T08:41:15;17.90;82.70
38854;DHT22;24606;51.992;4.198;2023-03-20T08:46:18;16.60;87.00
38854;DHT22;24606;51.992;4.198;2023-03-20T08:51:20;16.30;81.50
38854;DHT22;24606;51.992;4.198;2023-03-20T08:56:22;16.60;87.70
38854;DHT22;24606;51.992;4.198;2023-03-20T09:01:25;14.40;99.90
38854;DHT22;24606;51.992;4.198;2023-03-20T09:06:27;13.70;99.90
38854;DHT22;24606;51.992;4.198;2023-03-20T09:11:29;15.10;99.00
38854;DHT22;24606;51.992;4.198;2023-03-20T09:16:33;16.60;89.90
38854;DHT22;24606;51.992;4.198;2023-03-20T09:21:35;15.20;96.10
38854;DHT22;24606;51.992;4.198;2023-03-20T09:26:36;15.40;93.10
38854;DHT22;24606;51.992;4.198;2023-03-20T09:31:40;16.70;91.50
38854;DHT22;24606;51.992;4.198;2023-03-20T09:36:42;16.00;92.30
38854;DHT22;24606;51.992;4.198;2023-03-20T09:41:47;15.10;98.50
38854;DHT22;24606;51.992;4.198;2023-03-20T09:47:01;14.60;96.80
38854;DHT22;24606;51.992;4.198;2023-03-20T09:52:17;14.30;99.90
38854;DHT22;24606;51.992;4.198;2023-03-20T09:57:22;15.60;96.70
38854;DHT22;24606;51.992;4.198;2023-03-20T10:02:35;14.80;96.60
38854;DHT22;24606;51.992;4.198;2023-03-20T10:07:38;14.40;99.90
38854;DHT22;24606;51.992;4.198;2023-03-20T10:12:50;14.30;99.90
38854;DHT22;24606;51.992;4.198;2023-03-20T10:18:03;15.20;95.90
38854;DHT22;24606;51.992;4.198;2023-03-20T10:23:17;14.00;99.40
38854;DHT22;24606;51.992;4.198;2023-03-20T10:28:23;13.80;99.90
38854;DHT22;24606;51.992;4.198;2023-03-20T10:33:37;15.00;98.10
38854;DHT22;24606;51.992;4.198;2023-03-20T10:38:47;15.20;98.60
38854;DHT22;24606;51.992;4.198;2023-03-20T10:43:51;15.60;93.90
38854;DHT22;24606;51.992;4.198;2023-03-20T10:48:59;14.30;99.00
38854;DHT22;24606;51.992;4.198;2023-03-20T10:54:04;12.90;99.90
38854;DHT22;24606;51.992;4.198;2023-03-20T10:59:11;12.50;99.90
38854;DHT22;24606;51.992;4.198;2023-03-20T11:04:19;15.00;98.70
38854;DHT22;24606;51.992;4.198;2023-03-20T11:09:23;14.50;99.90
38854;DHT22;24606;51.992;4.198;2023-03-20T11:14:32;13.80;99.90
38854;DHT22;24606;51.992;4.198;2023-03-20T11:19:37;13.20;99.90
38854;DHT22;24606;51.992;4.198;2023-03-20T11:24:41;13.30;99.90
38854;DHT22;24606;51.992;4.198;2023-03-20T11:29:46;12.80;99.90
38854;DHT22;24606;51.992;4.198;2023-03-20T11:34:50;12.50;99.90
38854;DHT22;24606;51.992;4.198;2023-03-20T11:39:57;12.60;99.90
38854;DHT22;24606;51.992;4.198;2023-03-20T11:45:01;11.90;99.90
38854;DHT22;24606;51.992;4.198;2023-03-20T11:50:23;11.90;99.90
38854;DHT22;24606;51.992;4.198;2023-03-20T11:55:27;12.10;99.90
38854;DHT22;24606;51.992;4.198;2023-03-20T12:00:36;11.70;99.90
38854;DHT22;24606;51.992;4.198;2023-03-20T12:05:40;13.00;99.90
38854;DHT22;24606;51.992;4.198;2023-03-20T12:10:47;13.30;99.90
38854;DHT22;24606;51.992;4.198;2023-03-20T12:15:56;11.90;99.90
38854;DHT22;24606;51.992;4.198;2023-03-20T12:21:07;12.60;99.90
38854;DHT22;24606;51.992;4.198;2023-03-20T12:26:12;13.30;99.90
38854;DHT22;24606;51.992;4.198;2023-03-20T12:31:21;11.90;99.90
38854;DHT22;24606;51.992;4.198;2023-03-20T12:36:30;11.30;99.90
38854;DHT22;24606;51.992;4.198;2023-03-20T12:41:39;11.30;99.90
38854;DHT22;24606;51.992;4.198;2023-03-20T12:46:44;13.20;99.90
38854;DHT22;24606;51.992;4.198;2023-03-20T12:51:56;12.20;99.90
38854;DHT22;24606;51.992;4.198;2023-03-20T12:57:07;13.30;99.90
38854;DHT22;24606;51.992;4.198;2023-03-20T13:02:21;12.90;99.90
38854;DHT22;24606;51.992;4.198;2023-03-20T13:07:36;13.50;99.90
38854;DHT22;24606;51.992;4.198;2023-03-20T13:12:48;12.40;99.90
38854;DHT22;24606;51.992;4.198;2023-03-20T13:17:58;11.60;99.90
38854;DHT22;24606;51.992;4.198;2023-03-20T13:23:11;12.10;99.90
38854;DHT22;24606;51.992;4.198;2023-03-20T13:28:21;12.40;99.90
38854;DHT22;24606;51.992;4.198;2023-03-20T13:33:34;12.40;99.90
38854;DHT22;24606;51.992;4.198;2023-03-20T13:38:43;12.10;99.90
38854;DHT22;24606;51.992;4.198;2023-03-20T13:43:48;10.90;99.90
38854;DHT22;24606;51.992;4.198;2023-03-20T13:49:00;12.60;99.90
38854;DHT22;24606;51.992;4.198;2023-03-20T13:54:14;12.20;99.90
38854;DHT22;24606;51.992;4.198;2023-03-20T13:59:33;11.90;99.90
38854;DHT22;24606;51.992;4.198;2023-03-20T14:04:36;11.10;99.90
38854;DHT22;24606;51.992;4.198;2023-03-20T14:09:41;11.70;99.90
38854;DHT22;24606;51.992;4.198;2023-03-20T14:14:48;11.60;99.90
38854;DHT22;24606;51.992;4.198;2023-03-20T14:19:54;11.40;99.90
38854;DHT22;24606;51.992;4.198;2023-03-20T14:24:59;10.50;99.90
38854;DHT22;24606;51.992;4.198;2023-03-20T14:30:41;11.20;99.90
38854;DHT22;24606;51.992;4.198;2023-03-20T14:35:45;11.90;99.90
38854;DHT22;24606;51.992;4.198;2023-03-20T14:40:58;11.20;99.90
38854;DHT22;24606;51.992;4.198;2023-03-20T14:46:07;10.50;99.90
38854;DHT22;24606;51.992;4.198;2023-03-20T14:51:23;11.20;99.90
38854;DHT22;24606;51.992;4.198;2023-03-20T14:56:32;10.70;99.90
38854;DHT22;24606;51.992;4.198;2023-03-20T15:01:47;10.70;99.90
38854;DHT22;24606;51.992;4.198;2023-03-20T15:06:57;10.90;99.90
38854;DHT22;24606;51.992;4.198;2023-03-20T15:12:02;10.40;99.90
38854;DHT22;24606;51.992;4.198;2023-03-20T15:17:05;10.20;99.90
38854;DHT22;24606;51.992;4.198;2023-03-20T15:22:14;11.30;99.90
38854;DHT22;24606;51.992;4.198;2023-03-20T15:27:18;10.30;99.90
38854;DHT22;24606;51.992;4.198;2023-03-20T15:32:21;10.40;99.90
38854;DHT22;24606;51.992;4.198;2023-03-20T15:37:24;9.80;99.90
38854;DHT22;24606;51.992;4.198;2023-03-20T15:42:29;10.50;99.90
38854;DHT22;24606;51.992;4.198;2023-03-20T15:47:34;11.70;99.90
38854;DHT22;24606;51.992;4.198;2023-03-20T15:57:42;11.20;99.90
38854;DHT22;24606;51.992;4.198;2023-03-20T16:02:45;10.50;99.90
38854;DHT22;24606;51.992;4.198;2023-03-20T16:07:48;11.30;99.90
38854;DHT22;24606;51.992;4.198;2023-03-20T16:12:52;11.10;99.90
38854;DHT22;24606;51.992;4.198;2023-03-20T16:17:57;12.20;99.90
38854;DHT22;24606;51.992;4.198;2023-03-20T16:23:01;11.50;99.90
38854;DHT22;24606;51.992;4.198;2023-03-20T16:28:06;11.50;99.90
38854;DHT22;24606;51.992;4.198;2023-03-20T16:33:12;12.80;99.90
38854;DHT22;24606;51.992;4.198;2023-03-20T16:38:22;11.50;99.90
38854;DHT22;24606;51.992;4.198;2023-03-20T16:43:29;11.00;99.90
38854;DHT22;24606;51.992;4.198;2023-03-20T16:48:32;11.50;99.90
38854;DHT22;24606;51.992;4.198;2023-03-20T16:53:39;10.80;99.90
38854;DHT22;24606;51.992;4.198;2023-03-20T16:58:43;11.30;99.90
38854;DHT22;24606;51.992;4.198;2023-03-20T17:03:49;12.00;99.90
38854;DHT22;24606;51.992;4.198;2023-03-20T17:08:54;12.10;99.90
38854;DHT22;24606;51.992;4.198;2023-03-20T17:13:57;12.30;99.90
38854;DHT22;24606;51.992;4.198;2023-03-20T17:19:01;11.60;99.90
38854;DHT22;24606;51.992;4.198;2023-03-20T17:24:04;11.80;99.90
38854;DHT22;24606;51.992;4.198;2023-03-20T17:29:09;12.40;99.90
38854;DHT22;24606;51.992;4.198;2023-03-20T17:34:12;14.00;99.90
38854;DHT22;24606;51.992;4.198;2023-03-20T17:39:16;12.80;99.90
38854;DHT22;24606;51.992;4.198;2023-03-20T17:44:19;11.50;99.90
38854;DHT22;24606;51.992;4.198;2023-03-20T17:49:21;12.00;99.90
38854;DHT22;24606;51.992;4.198;2023-03-20T17:54:26;12.50;99.90
38854;DHT22;24606;51.992;4.198;2023-03-20T17:59:29;14.40;99.90
38854;DHT22;24606;51.992;4.198;2023-03-20T18:04:32;13.10;99.90
38854;DHT22;24606;51.992;4.198;2023-03-20T18:09:35;12.50;99.90
38854;DHT22;24606;51.992;4.198;2023-03-20T18:14:38;12.10;99.90
38854;DHT22;24606;51.992;4.198;2023-03-20T18:19:41;11.60;99.90
38854;DHT22;24606;51.992;4.198;2023-03-20T18:24:43;12.00;99.90
38854;DHT22;24606;51.992;4.198;2023-03-20T18:29:47;11.00;99.90
38854;DHT22;24606;51.992;4.198;2023-03-20T18:34:49;12.10;99.90
38854;DHT22;24606;51.992;4.198;2023-03-20T18:39:50;11.20;99.90
38854;DHT22;24606;51.992;4.198;2023-03-20T18:44:54;11.00;99.90
38854;DHT22;24606;51.992;4.198;2023-03-20T18:49:56;10.60;99.90
38854;DHT22;24606;51.992;4.198;2023-03-20T18:54:57;11.00;99.90
38854;DHT22;24606;51.992;4.198;2023-03-20T19:00:01;11.00;99.90
38854;DHT22;24606;51.992;4.198;2023-03-20T19:05:03;10.30;99.90
38854;DHT22;24606;51.992;4.198;2023-03-20T19:10:09;10.40;99.90
38854;DHT22;24606;51.992;4.198;2023-03-20T19:15:15;10.40;99.90
38854;DHT22;24606;51.992;4.198;2023-03-20T19:20:30;10.90;99.90
38854;DHT22;24606;51.992;4.198;2023-03-20T19:25:34;10.40;99.90
38854;DHT22;24606;51.992;4.198;2023-03-20T19:30:38;11.00;99.90
38854;DHT22;24606;51.992;4.198;2023-03-20T19:35:40;10.70;99.90
38854;DHT22;24606;51.992;4.198;2023-03-20T19:40:44;10.40;99.90
38854;DHT22;24606;51.992;4.198;2023-03-20T19:45:49;10.30;99.90
38854;DHT22;24606;51.992;4.198;2023-03-20T19:50:56;11.10;99.90
38854;DHT22;24606;51.992;4.198;2023-03-20T19:55:58;10.70;99.90
38854;DHT22;24606;51.992;4.198;2023-03-20T20:01:02;10.70;99.90
38854;DHT22;24606;51.992;4.198;2023-03-20T20:06:04;12.30;99.90
38854;DHT22;24606;51.992;4.198;2023-03-20T20:11:07;12.10;99.90
38854;DHT22;24606;51.992;4.198;2023-03-20T20:16:12;13.10;99.90
38854;DHT22;24606;51.992;4.198;2023-03-20T20:21:14;13.10;99.90
38854;DHT22;24606;51.992;4.198;2023-03-20T20:26:16;13.90;99.90
38854;DHT22;24606;51.992;4.198;2023-03-20T20:31:26;11.50;99.90
38854;DHT22;24606;51.992;4.198;2023-03-20T20:36:28;11.70;99.90
38854;DHT22;24606;51.992;4.198;2023-03-20T20:41:30;11.00;99.90
38854;DHT22;24606;51.992;4.198;2023-03-20T20:46:33;11.30;99.90
38854;DHT22;24606;51.992;4.198;2023-03-20T20:51:35;13.50;99.90
38854;DHT22;24606;51.992;4.198;2023-03-20T20:56:37;13.40;99.90
38854;DHT22;24606;51.992;4.198;2023-03-20T21:01:40;12.70;99.90
38854;DHT22;24606;51.992;4.198;2023-03-20T21:06:42;12.70;99.90
38854;DHT22;24606;51.992;4.198;2023-03-20T21:11:44;12.30;99.90
38854;DHT22;24606;51.992;4.198;2023-03-20T21:16:47;11.80;99.90
38854;DHT22;24606;51.992;4.198;2023-03-20T21:21:49;11.50;99.90
38854;DHT22;24606;51.992;4.198;2023-03-20T21:26:51;11.10;99.90
38854;DHT22;24606;51.992;4.198;2023-03-20T21:31:55;11.80;99.90
38854;DHT22;24606;51.992;4.198;2023-03-20T21:36:57;11.90;99.90
38854;DHT22;24606;51.992;4.198;2023-03-20T21:41:59;13.80;99.90
38854;DHT22;24606;51.992;4.198;2023-03-20T21:47:03;13.40;99.90
38854;DHT22;24606;51.992;4.198;2023-03-20T21:52:05;13.30;99.90
38854;DHT22;24606;51.992;4.198;2023-03-20T21:57:07;13.00;99.90
38854;DHT22;24606;51.992;4.198;2023-03-20T22:02:13;11.90;99.90
38854;DHT22;24606;51.992;4.198;2023-03-20T22:07:16;12.70;99.90
38854;DHT22;24606;51.992;4.198;2023-03-20T22:12:18;12.00;99.90
38854;DHT22;24606;51.992;4.198;2023-03-20T22:17:21;11.10;99.90
38854;DHT22;24606;51.992;4.198;2023-03-20T22:22:24;11.80;99.90
38854;DHT22;24606;51.992;4.198;2023-03-20T22:27:26;11.60;99.90
38854;DHT22;24606;51.992;4.198;2023-03-20T22:32:29;12.20;99.90
38854;DHT22;24606;51.992;4.198;2023-03-20T22:37:31;12.00;99.90
38854;DHT22;24606;51.992;4.198;2023-03-20T22:42:33;13.80;99.90
38854;DHT22;24606;51.992;4.198;2023-03-20T22:47:37;13.40;99.90
38854;DHT22;24606;51.992;4.198;2023-03-20T22:52:38;14.10;99.90
38854;DHT22;24606;51.992;4.198;2023-03-20T22:57:40;13.90;99.90
38854;DHT22;24606;51.992;4.198;2023-03-20T23:02:44;13.90;99.90
38854;DHT22;24606;51.992;4.198;2023-03-20T23:07:46;12.70;99.90
38854;DHT22;24606;51.992;4.198;2023-03-20T23:12:47;12.40;99.90
38854;DHT22;24606;51.992;4.198;2023-03-20T23:17:51;12.00;99.90
38854;DHT22;24606;51.992;4.198;2023-03-20T23:22:53;13.00;99.90
38854;DHT22;24606;51.992;4.198;2023-03-20T23:27:56;13.70;99.90
38854;DHT22;24606;51.992;4.198;2023-03-20T23:32:59;13.00;99.90
38854;DHT22;24606;51.992;4.198;2023-03-20T23:38:01;12.40;99.90
38854;DHT22;24606;51.992;4.198;2023-03-20T23:43:03;12.50;99.90
38854;DHT22;24606;51.992;4.198;2023-03-20T23:48:06;13.40;99.90
38854;DHT22;24606;51.992;4.198;2023-03-20T23:53:08;12.20;99.90
38854;DHT22;24606;51.992;4.198;2023-03-20T23:58:11;12.30;99.90
